sensor_id;sensor_type;location;lat;lon;timestamp;temperature;humidity
9772;DHT22;4925;52.588;13.370;2023-07-29T00:00:33;21.50;99.90
9772;DHT22;4925;52.588;13.370;2023-07-29T00:02:59;21.50;99.90
9772;DHT22;4925;52.588;13.370;2023-07-29T00:05:25;21.50;99.90
9772;DHT22;4925;52.588;13.370;2023-07-29T00:07:50;21.50;99.90
9772;DHT22;4925;52.588;13.370;2023-07-29T00:10:16;21.50;99.90
9772;DHT22;4925;52.588;13.370;2023-07-29T00:12:42;21.40;99.90
9772;DHT22;4925;52.588;13.370;2023-07-29T00:15:08;21.20;99.90
9772;DHT22;4925;52.588;13.370;2023-07-29T00:17:33;21.20;99.90
9772;DHT22;4925;52.588;13.370;2023-07-29T00:19:59;21.30;99.90
9772;DHT22;4925;52.588;13.370;2023-07-29T00:22:25;21.30;99.90
9772;DHT22;4925;52.588;13.370;2023-07-29T00:24:54;21.30;99.90
9772;DHT22;4925;52.588;13.370;2023-07-29T00:27:25;21.30;99.90
9772;DHT22;4925;52.588;13.370;2023-07-29T00:29:51;21.30;99.90
9772;DHT22;4925;52.588;13.370;2023-07-29T00:32:17;21.30;99.90
9772;DHT22;4925;52.588;13.370;2023-07-29T00:34:43;21.20;99.90
9772;DHT22;4925;52.588;13.370;2023-07-29T00:37:08;21.20;99.90
9772;DHT22;4925;52.588;13.370;2023-07-29T00:39:34;21.20;99.90
9772;DHT22;4925;52.588;13.370;2023-07-29T00:42:00;21.20;99.90
9772;DHT22;4925;52.588;13.370;2023-07-29T00:44:25;21.20;99.90
9772;DHT22;4925;52.588;13.370;2023-07-29T00:46:52;21.10;99.90
9772;DHT22;4925;52.588;13.370;2023-07-29T00:49:21;21.10;99.90
9772;DHT22;4925;52.588;13.370;2023-07-29T00:51:47;21.10;99.90
9772;DHT22;4925;52.588;13.370;2023-07-29T00:54:13;21.10;99.90
9772;DHT22;4925;52.588;13.370;2023-07-29T00:56:40;21.00;99.90
9772;DHT22;4925;52.588;13.370;2023-07-29T00:59:05;20.90;99.90
9772;DHT22;4925;52.588;13.370;2023-07-29T01:01:31;20.90;99.90
9772;DHT22;4925;52.588;13.370;2023-07-29T01:03:58;20.90;99.90
9772;DHT22;4925;52.588;13.370;2023-07-29T01:06:34;20.90;99.90
9772;DHT22;4925;52.588;13.370;2023-07-29T01:09:13;20.90;99.90
9772;DHT22;4925;52.588;13.370;2023-07-29T01:14:41;20.80;99.90
9772;DHT22;4925;52.588;13.370;2023-07-29T01:17:15;20.80;99.90
9772;DHT22;4925;52.588;13.370;2023-07-29T01:19:53;20.80;99.90
9772;DHT22;4925;52.588;13.370;2023-07-29T01:22:21;20.90;99.90
9772;DHT22;4925;52.588;13.370;2023-07-29T01:24:48;20.80;99.90
9772;DHT22;4925;52.588;13.370;2023-07-29T01:27:13;20.80;99.90
9772;DHT22;4925;52.588;13.370;2023-07-29T01:29:39;20.70;99.90
9772;DHT22;4925;52.588;13.370;2023-07-29T01:32:14;20.70;99.90
9772;DHT22;4925;52.588;13.370;2023-07-29T01:34:51;20.70;99.90
9772;DHT22;4925;52.588;13.370;2023-07-29T01:37:22;20.70;99.90
9772;DHT22;4925;52.588;13.370;2023-07-29T01:39:54;20.60;99.90
9772;DHT22;4925;52.588;13.370;2023-07-29T01:42:21;20.60;99.90
9772;DHT22;4925;52.588;13.370;2023-07-29T01:44:47;20.60;99.90
9772;DHT22;4925;52.588;13.370;2023-07-29T01:47:13;20.50;99.90
9772;DHT22;4925;52.588;13.370;2023-07-29T01:49:38;20.40;99.90
9772;DHT22;4925;52.588;13.370;2023-07-29T01:52:04;20.40;99.90
9772;DHT22;4925;52.588;13.370;2023-07-29T01:54:30;20.30;99.90
9772;DHT22;4925;52.588;13.370;2023-07-29T01:56:55;20.30;99.90
9772;DHT22;4925;52.588;13.370;2023-07-29T01:59:21;20.30;99.90
9772;DHT22;4925;52.588;13.370;2023-07-29T02:01:47;20.30;99.90
9772;DHT22;4925;52.588;13.370;2023-07-29T02:04:12;20.30;99.90
9772;DHT22;4925;52.588;13.370;2023-07-29T02:06:38;20.30;99.90
9772;DHT22;4925;52.588;13.370;2023-07-29T02:09:03;20.30;99.90
9772;DHT22;4925;52.588;13.370;2023-07-29T02:11:30;20.30;99.90
9772;DHT22;4925;52.588;13.370;2023-07-29T02:13:56;20.30;99.90
9772;DHT22;4925;52.588;13.370;2023-07-29T02:16:22;20.30;99.90
9772;DHT22;4925;52.588;13.370;2023-07-29T02:18:48;20.30;99.90
9772;DHT22;4925;52.588;13.370;2023-07-29T02:21:15;20.20;99.90
9772;DHT22;4925;52.588;13.370;2023-07-29T02:23:41;20.20;99.90
9772;DHT22;4925;52.588;13.370;2023-07-29T02:26:06;20.20;99.90
9772;DHT22;4925;52.588;13.370;2023-07-29T02:28:32;20.20;99.90
9772;DHT22;4925;52.588;13.370;2023-07-29T02:31:16;20.20;99.90
9772;DHT22;4925;52.588;13.370;2023-07-29T02:33:42;20.10;99.90
9772;DHT22;4925;52.588;13.370;2023-07-29T02:36:09;20.00;99.90
9772;DHT22;4925;52.588;13.370;2023-07-29T02:38:34;20.00;99.90
9772;DHT22;4925;52.588;13.370;2023-07-29T02:41:00;19.90;99.90
9772;DHT22;4925;52.588;13.370;2023-07-29T02:43:25;19.90;99.90
9772;DHT22;4925;52.588;13.370;2023-07-29T02:45:51;19.90;99.90
9772;DHT22;4925;52.588;13.370;2023-07-29T02:48:17;19.80;99.90
9772;DHT22;4925;52.588;13.370;2023-07-29T02:50:42;19.80;99.90
9772;DHT22;4925;52.588;13.370;2023-07-29T02:53:08;19.80;99.90
9772;DHT22;4925;52.588;13.370;2023-07-29T02:55:34;19.90;99.90
9772;DHT22;4925;52.588;13.370;2023-07-29T02:57:59;19.90;99.90
9772;DHT22;4925;52.588;13.370;2023-07-29T03:00:25;19.90;99.90
9772;DHT22;4925;52.588;13.370;2023-07-29T03:02:51;19.90;99.90
9772;DHT22;4925;52.588;13.370;2023-07-29T03:05:16;20.00;99.90
9772;DHT22;4925;52.588;13.370;2023-07-29T03:07:42;20.00;99.90
9772;DHT22;4925;52.588;13.370;2023-07-29T03:10:09;20.00;99.90
9772;DHT22;4925;52.588;13.370;2023-07-29T03:12:36;19.90;99.90
9772;DHT22;4925;52.588;13.370;2023-07-29T03:15:02;19.90;99.90
9772;DHT22;4925;52.588;13.370;2023-07-29T03:17:28;19.90;99.90
9772;DHT22;4925;52.588;13.370;2023-07-29T03:19:54;19.90;99.90
9772;DHT22;4925;52.588;13.370;2023-07-29T03:22:20;19.90;99.90
9772;DHT22;4925;52.588;13.370;2023-07-29T03:24:45;19.90;99.90
9772;DHT22;4925;52.588;13.370;2023-07-29T03:27:11;19.90;99.90
9772;DHT22;4925;52.588;13.370;2023-07-29T03:29:37;19.80;99.90
9772;DHT22;4925;52.588;13.370;2023-07-29T03:32:02;19.80;99.90
9772;DHT22;4925;52.588;13.370;2023-07-29T03:34:28;19.80;99.90
9772;DHT22;4925;52.588;13.370;2023-07-29T03:36:54;19.70;99.90
9772;DHT22;4925;52.588;13.370;2023-07-29T03:39:19;19.70;99.90
9772;DHT22;4925;52.588;13.370;2023-07-29T03:41:45;19.80;99.90
9772;DHT22;4925;52.588;13.370;2023-07-29T03:44:11;19.80;99.90
9772;DHT22;4925;52.588;13.370;2023-07-29T03:46:36;19.80;99.90
9772;DHT22;4925;52.588;13.370;2023-07-29T03:49:02;19.80;99.90
9772;DHT22;4925;52.588;13.370;2023-07-29T03:51:28;19.80;99.90
9772;DHT22;4925;52.588;13.370;2023-07-29T03:53:54;19.80;99.90
9772;DHT22;4925;52.588;13.370;2023-07-29T03:56:19;19.80;99.90
9772;DHT22;4925;52.588;13.370;2023-07-29T03:58:46;19.80;99.90
9772;DHT22;4925;52.588;13.370;2023-07-29T04:01:13;19.80;99.90
9772;DHT22;4925;52.588;13.370;2023-07-29T04:03:39;19.80;99.90
9772;DHT22;4925;52.588;13.370;2023-07-29T04:06:04;19.80;99.90
9772;DHT22;4925;52.588;13.370;2023-07-29T04:08:30;19.80;99.90
9772;DHT22;4925;52.588;13.370;2023-07-29T04:10:56;19.80;99.90
9772;DHT22;4925;52.588;13.370;2023-07-29T04:13:22;19.90;99.90
9772;DHT22;4925;52.588;13.370;2023-07-29T04:15:47;19.90;99.90
9772;DHT22;4925;52.588;13.370;2023-07-29T04:18:13;19.90;99.90
9772;DHT22;4925;52.588;13.370;2023-07-29T04:20:39;19.90;99.90
9772;DHT22;4925;52.588;13.370;2023-07-29T04:23:04;19.90;99.90
9772;DHT22;4925;52.588;13.370;2023-07-29T04:25:30;19.90;99.90
9772;DHT22;4925;52.588;13.370;2023-07-29T04:27:56;19.90;99.90
9772;DHT22;4925;52.588;13.370;2023-07-29T04:30:23;20.00;99.90
9772;DHT22;4925;52.588;13.370;2023-07-29T04:32:48;20.00;99.90
9772;DHT22;4925;52.588;13.370;2023-07-29T04:35:15;20.00;99.90
9772;DHT22;4925;52.588;13.370;2023-07-29T04:37:41;20.10;99.90
9772;DHT22;4925;52.588;13.370;2023-07-29T04:40:07;20.10;99.90
9772;DHT22;4925;52.588;13.370;2023-07-29T04:42:32;20.20;99.90
9772;DHT22;4925;52.588;13.370;2023-07-29T04:44:58;20.20;99.90
9772;DHT22;4925;52.588;13.370;2023-07-29T04:47:24;20.30;99.90
9772;DHT22;4925;52.588;13.370;2023-07-29T04:49:49;20.30;99.90
9772;DHT22;4925;52.588;13.370;2023-07-29T04:52:15;20.40;99.90
9772;DHT22;4925;52.588;13.370;2023-07-29T04:54:41;20.40;99.90
9772;DHT22;4925;52.588;13.370;2023-07-29T04:57:07;20.50;99.90
9772;DHT22;4925;52.588;13.370;2023-07-29T04:59:32;20.50;99.90
9772;DHT22;4925;52.588;13.370;2023-07-29T05:01:58;20.60;99.90
9772;DHT22;4925;52.588;13.370;2023-07-29T05:04:24;20.60;99.90
9772;DHT22;4925;52.588;13.370;2023-07-29T05:06:49;20.70;99.90
9772;DHT22;4925;52.588;13.370;2023-07-29T05:09:16;20.70;99.90
9772;DHT22;4925;52.588;13.370;2023-07-29T05:11:43;20.80;99.90
9772;DHT22;4925;52.588;13.370;2023-07-29T05:14:13;20.90;99.90
9772;DHT22;4925;52.588;13.370;2023-07-29T05:16:39;21.00;99.90
9772;DHT22;4925;52.588;13.370;2023-07-29T05:19:05;21.00;99.90
9772;DHT22;4925;52.588;13.370;2023-07-29T05:21:31;21.10;99.90
9772;DHT22;4925;52.588;13.370;2023-07-29T05:23:56;21.30;99.90
9772;DHT22;4925;52.588;13.370;2023-07-29T05:26:22;21.40;99.90
9772;DHT22;4925;52.588;13.370;2023-07-29T05:28:48;21.40;99.90
9772;DHT22;4925;52.588;13.370;2023-07-29T05:31:14;21.50;99.90
9772;DHT22;4925;52.588;13.370;2023-07-29T05:33:40;21.60;99.90
9772;DHT22;4925;52.588;13.370;2023-07-29T05:36:05;21.70;99.90
9772;DHT22;4925;52.588;13.370;2023-07-29T05:38:31;21.70;99.90
9772;DHT22;4925;52.588;13.370;2023-07-29T05:40:58;21.90;99.90
9772;DHT22;4925;52.588;13.370;2023-07-29T05:43:24;22.10;99.90
9772;DHT22;4925;52.588;13.370;2023-07-29T05:45:50;22.20;99.90
9772;DHT22;4925;52.588;13.370;2023-07-29T05:48:16;22.40;99.90
9772;DHT22;4925;52.588;13.370;2023-07-29T05:50:42;22.50;99.90
9772;DHT22;4925;52.588;13.370;2023-07-29T05:53:08;22.40;99.90
9772;DHT22;4925;52.588;13.370;2023-07-29T05:55:33;22.30;99.90
9772;DHT22;4925;52.588;13.370;2023-07-29T05:57:59;22.30;99.90
9772;DHT22;4925;52.588;13.370;2023-07-29T06:00:25;22.00;99.90
9772;DHT22;4925;52.588;13.370;2023-07-29T06:02:50;22.00;99.90
9772;DHT22;4925;52.588;13.370;2023-07-29T06:05:16;21.80;99.90
9772;DHT22;4925;52.588;13.370;2023-07-29T06:07:41;21.70;99.90
9772;DHT22;4925;52.588;13.370;2023-07-29T06:10:13;21.60;99.90
9772;DHT22;4925;52.588;13.370;2023-07-29T06:12:39;21.60;99.90
9772;DHT22;4925;52.588;13.370;2023-07-29T06:15:05;21.60;99.90
9772;DHT22;4925;52.588;13.370;2023-07-29T06:17:30;21.70;99.90
9772;DHT22;4925;52.588;13.370;2023-07-29T06:19:56;21.70;99.90
9772;DHT22;4925;52.588;13.370;2023-07-29T06:22:22;21.80;99.90
9772;DHT22;4925;52.588;13.370;2023-07-29T06:24:47;21.80;99.90
9772;DHT22;4925;52.588;13.370;2023-07-29T06:27:13;21.80;99.90
9772;DHT22;4925;52.588;13.370;2023-07-29T06:29:39;22.10;99.90
9772;DHT22;4925;52.588;13.370;2023-07-29T06:32:04;22.10;99.90
9772;DHT22;4925;52.588;13.370;2023-07-29T06:34:30;21.90;99.90
9772;DHT22;4925;52.588;13.370;2023-07-29T06:36:56;21.90;99.90
9772;DHT22;4925;52.588;13.370;2023-07-29T06:39:22;22.00;99.90
9772;DHT22;4925;52.588;13.370;2023-07-29T06:41:47;22.00;99.90
9772;DHT22;4925;52.588;13.370;2023-07-29T06:44:13;22.00;99.90
9772;DHT22;4925;52.588;13.370;2023-07-29T06:46:39;22.20;99.90
9772;DHT22;4925;52.588;13.370;2023-07-29T06:49:05;22.30;99.90
9772;DHT22;4925;52.588;13.370;2023-07-29T06:51:31;22.40;99.90
9772;DHT22;4925;52.588;13.370;2023-07-29T06:54:00;22.60;99.90
9772;DHT22;4925;52.588;13.370;2023-07-29T06:56:25;22.50;99.90
9772;DHT22;4925;52.588;13.370;2023-07-29T06:58:51;22.60;99.90
9772;DHT22;4925;52.588;13.370;2023-07-29T07:01:17;22.70;99.90
9772;DHT22;4925;52.588;13.370;2023-07-29T07:03:43;22.90;99.90
9772;DHT22;4925;52.588;13.370;2023-07-29T07:06:08;23.00;99.90
9772;DHT22;4925;52.588;13.370;2023-07-29T07:08:34;22.90;99.90
9772;DHT22;4925;52.588;13.370;2023-07-29T07:11:00;23.00;99.90
9772;DHT22;4925;52.588;13.370;2023-07-29T07:13:25;22.80;99.90
9772;DHT22;4925;52.588;13.370;2023-07-29T07:15:54;22.80;99.90
9772;DHT22;4925;52.588;13.370;2023-07-29T07:18:20;22.70;99.90
9772;DHT22;4925;52.588;13.370;2023-07-29T07:20:49;22.70;99.90
9772;DHT22;4925;52.588;13.370;2023-07-29T07:23:15;22.70;99.90
9772;DHT22;4925;52.588;13.370;2023-07-29T07:25:41;22.80;99.90
9772;DHT22;4925;52.588;13.370;2023-07-29T07:28:08;22.70;99.90
9772;DHT22;4925;52.588;13.370;2023-07-29T07:30:34;22.80;99.90
9772;DHT22;4925;52.588;13.370;2023-07-29T07:33:00;23.20;99.90
9772;DHT22;4925;52.588;13.370;2023-07-29T07:35:26;23.20;99.90
9772;DHT22;4925;52.588;13.370;2023-07-29T07:37:52;23.10;99.90
9772;DHT22;4925;52.588;13.370;2023-07-29T07:40:17;23.10;99.90
9772;DHT22;4925;52.588;13.370;2023-07-29T07:42:43;23.30;99.90
9772;DHT22;4925;52.588;13.370;2023-07-29T07:45:09;23.30;99.90
9772;DHT22;4925;52.588;13.370;2023-07-29T07:47:34;23.50;99.90
9772;DHT22;4925;52.588;13.370;2023-07-29T07:50:00;23.50;99.90
9772;DHT22;4925;52.588;13.370;2023-07-29T07:52:25;23.80;99.90
9772;DHT22;4925;52.588;13.370;2023-07-29T07:54:54;24.00;99.90
9772;DHT22;4925;52.588;13.370;2023-07-29T07:57:21;24.10;99.90
9772;DHT22;4925;52.588;13.370;2023-07-29T07:59:47;24.10;99.90
9772;DHT22;4925;52.588;13.370;2023-07-29T08:02:13;24.40;99.90
9772;DHT22;4925;52.588;13.370;2023-07-29T08:04:38;24.40;99.90
9772;DHT22;4925;52.588;13.370;2023-07-29T08:07:04;24.60;99.90
9772;DHT22;4925;52.588;13.370;2023-07-29T08:09:30;24.50;99.90
9772;DHT22;4925;52.588;13.370;2023-07-29T08:11:56;24.50;99.90
9772;DHT22;4925;52.588;13.370;2023-07-29T08:14:22;24.70;99.90
9772;DHT22;4925;52.588;13.370;2023-07-29T08:16:47;24.60;99.90
9772;DHT22;4925;52.588;13.370;2023-07-29T08:19:13;24.50;99.90
9772;DHT22;4925;52.588;13.370;2023-07-29T08:21:39;24.70;99.90
9772;DHT22;4925;52.588;13.370;2023-07-29T08:24:04;24.80;99.90
9772;DHT22;4925;52.588;13.370;2023-07-29T08:26:32;24.80;99.90
9772;DHT22;4925;52.588;13.370;2023-07-29T08:28:57;24.80;99.90
9772;DHT22;4925;52.588;13.370;2023-07-29T08:31:23;24.70;99.90
9772;DHT22;4925;52.588;13.370;2023-07-29T08:33:49;24.70;99.90
9772;DHT22;4925;52.588;13.370;2023-07-29T08:36:14;24.80;99.90
9772;DHT22;4925;52.588;13.370;2023-07-29T08:38:40;24.60;99.90
9772;DHT22;4925;52.588;13.370;2023-07-29T08:41:26;24.50;99.90
9772;DHT22;4925;52.588;13.370;2023-07-29T08:44:18;24.80;99.90
9772;DHT22;4925;52.588;13.370;2023-07-29T08:46:46;24.80;99.90
9772;DHT22;4925;52.588;13.370;2023-07-29T08:49:12;25.10;99.90
9772;DHT22;4925;52.588;13.370;2023-07-29T08:51:45;25.40;99.90
9772;DHT22;4925;52.588;13.370;2023-07-29T08:54:11;25.70;99.90
9772;DHT22;4925;52.588;13.370;2023-07-29T08:56:40;26.20;99.90
9772;DHT22;4925;52.588;13.370;2023-07-29T08:59:07;26.10;99.90
9772;DHT22;4925;52.588;13.370;2023-07-29T09:01:33;25.70;99.90
9772;DHT22;4925;52.588;13.370;2023-07-29T09:03:59;25.70;99.90
9772;DHT22;4925;52.588;13.370;2023-07-29T09:06:25;25.60;99.90
9772;DHT22;4925;52.588;13.370;2023-07-29T09:08:54;25.50;99.90
9772;DHT22;4925;52.588;13.370;2023-07-29T09:11:23;25.40;99.90
9772;DHT22;4925;52.588;13.370;2023-07-29T09:13:49;25.40;99.90
9772;DHT22;4925;52.588;13.370;2023-07-29T09:16:15;25.50;99.90
9772;DHT22;4925;52.588;13.370;2023-07-29T09:18:40;25.60;99.90
9772;DHT22;4925;52.588;13.370;2023-07-29T09:21:06;25.60;99.90
9772;DHT22;4925;52.588;13.370;2023-07-29T09:23:42;25.50;99.90
9772;DHT22;4925;52.588;13.370;2023-07-29T09:26:08;25.40;99.90
9772;DHT22;4925;52.588;13.370;2023-07-29T09:28:38;25.60;99.90
9772;DHT22;4925;52.588;13.370;2023-07-29T09:31:05;25.60;99.90
9772;DHT22;4925;52.588;13.370;2023-07-29T09:33:34;25.90;99.90
9772;DHT22;4925;52.588;13.370;2023-07-29T09:36:08;25.90;99.90
9772;DHT22;4925;52.588;13.370;2023-07-29T09:38:34;25.90;99.90
9772;DHT22;4925;52.588;13.370;2023-07-29T09:41:01;25.90;99.90
9772;DHT22;4925;52.588;13.370;2023-07-29T09:43:32;26.20;99.90
9772;DHT22;4925;52.588;13.370;2023-07-29T09:46:05;26.30;99.90
9772;DHT22;4925;52.588;13.370;2023-07-29T09:48:35;26.30;99.90
9772;DHT22;4925;52.588;13.370;2023-07-29T09:51:10;26.60;99.90
9772;DHT22;4925;52.588;13.370;2023-07-29T09:53:44;26.80;99.90
9772;DHT22;4925;52.588;13.370;2023-07-29T09:56:10;26.70;99.90
9772;DHT22;4925;52.588;13.370;2023-07-29T09:58:36;26.60;99.90
9772;DHT22;4925;52.588;13.370;2023-07-29T10:01:04;26.30;99.90
9772;DHT22;4925;52.588;13.370;2023-07-29T10:03:31;26.30;99.90
9772;DHT22;4925;52.588;13.370;2023-07-29T10:06:03;26.30;99.90
9772;DHT22;4925;52.588;13.370;2023-07-29T10:08:32;26.40;99.90
9772;DHT22;4925;52.588;13.370;2023-07-29T10:11:02;26.50;99.90
9772;DHT22;4925;52.588;13.370;2023-07-29T10:13:28;26.70;99.90
9772;DHT22;4925;52.588;13.370;2023-07-29T10:15:54;26.80;99.90
9772;DHT22;4925;52.588;13.370;2023-07-29T10:18:22;26.80;99.90
9772;DHT22;4925;52.588;13.370;2023-07-29T10:20:51;27.10;99.90
9772;DHT22;4925;52.588;13.370;2023-07-29T10:23:18;27.20;99.90
9772;DHT22;4925;52.588;13.370;2023-07-29T10:25:50;27.10;99.90
9772;DHT22;4925;52.588;13.370;2023-07-29T10:28:20;27.30;99.90
9772;DHT22;4925;52.588;13.370;2023-07-29T10:30:50;27.20;99.90
9772;DHT22;4925;52.588;13.370;2023-07-29T10:33:16;27.00;99.90
9772;DHT22;4925;52.588;13.370;2023-07-29T10:35:42;27.00;99.90
9772;DHT22;4925;52.588;13.370;2023-07-29T10:38:08;27.10;99.90
9772;DHT22;4925;52.588;13.370;2023-07-29T10:40:54;27.10;99.90
9772;DHT22;4925;52.588;13.370;2023-07-29T10:43:36;27.00;99.90
9772;DHT22;4925;52.588;13.370;2023-07-29T10:48:44;26.80;99.90
9772;DHT22;4925;52.588;13.370;2023-07-29T10:51:35;26.60;99.90
9772;DHT22;4925;52.588;13.370;2023-07-29T10:54:10;26.40;99.90
9772;DHT22;4925;52.588;13.370;2023-07-29T10:56:37;26.50;99.90
9772;DHT22;4925;52.588;13.370;2023-07-29T11:01:54;26.00;99.90
9772;DHT22;4925;52.588;13.370;2023-07-29T11:17:40;24.60;99.90
9772;DHT22;4925;52.588;13.370;2023-07-29T11:20:07;24.30;99.90
9772;DHT22;4925;52.588;13.370;2023-07-29T11:22:34;23.60;99.90
9772;DHT22;4925;52.588;13.370;2023-07-29T11:25:00;23.20;99.90
9772;DHT22;4925;52.588;13.370;2023-07-29T11:27:25;22.70;99.90
9772;DHT22;4925;52.588;13.370;2023-07-29T11:29:57;22.30;99.90
9772;DHT22;4925;52.588;13.370;2023-07-29T11:32:24;22.30;99.90
9772;DHT22;4925;52.588;13.370;2023-07-29T11:34:50;22.30;99.90
9772;DHT22;4925;52.588;13.370;2023-07-29T11:37:16;22.20;99.90
9772;DHT22;4925;52.588;13.370;2023-07-29T11:39:43;22.40;99.90
9772;DHT22;4925;52.588;13.370;2023-07-29T11:42:13;22.50;99.90
9772;DHT22;4925;52.588;13.370;2023-07-29T11:44:39;22.60;99.90
9772;DHT22;4925;52.588;13.370;2023-07-29T11:47:12;22.70;99.90
9772;DHT22;4925;52.588;13.370;2023-07-29T11:49:40;22.80;99.90
9772;DHT22;4925;52.588;13.370;2023-07-29T11:52:09;22.90;99.90
9772;DHT22;4925;52.588;13.370;2023-07-29T11:54:36;23.00;99.90
9772;DHT22;4925;52.588;13.370;2023-07-29T11:57:07;23.10;99.90
9772;DHT22;4925;52.588;13.370;2023-07-29T11:59:34;23.30;99.90
9772;DHT22;4925;52.588;13.370;2023-07-29T12:02:11;23.40;99.90
9772;DHT22;4925;52.588;13.370;2023-07-29T12:04:38;23.40;99.90
9772;DHT22;4925;52.588;13.370;2023-07-29T12:07:04;23.60;99.90
9772;DHT22;4925;52.588;13.370;2023-07-29T12:09:30;23.70;99.90
9772;DHT22;4925;52.588;13.370;2023-07-29T12:11:56;23.80;99.90
9772;DHT22;4925;52.588;13.370;2023-07-29T12:14:25;23.90;99.90
9772;DHT22;4925;52.588;13.370;2023-07-29T12:16:51;23.90;99.90
9772;DHT22;4925;52.588;13.370;2023-07-29T12:19:18;23.90;99.90
9772;DHT22;4925;52.588;13.370;2023-07-29T12:21:44;23.90;99.90
9772;DHT22;4925;52.588;13.370;2023-07-29T12:24:12;23.90;99.90
9772;DHT22;4925;52.588;13.370;2023-07-29T12:26:38;23.90;99.90
9772;DHT22;4925;52.588;13.370;2023-07-29T12:29:17;24.00;99.90
9772;DHT22;4925;52.588;13.370;2023-07-29T12:31:45;24.10;99.90
9772;DHT22;4925;52.588;13.370;2023-07-29T12:34:21;24.10;99.90
9772;DHT22;4925;52.588;13.370;2023-07-29T12:36:48;24.30;99.90
9772;DHT22;4925;52.588;13.370;2023-07-29T12:41:49;24.50;99.90
9772;DHT22;4925;52.588;13.370;2023-07-29T12:44:15;24.60;99.90
9772;DHT22;4925;52.588;13.370;2023-07-29T12:46:41;24.70;99.90
9772;DHT22;4925;52.588;13.370;2023-07-29T12:49:07;24.80;99.90
9772;DHT22;4925;52.588;13.370;2023-07-29T12:51:33;25.00;99.90
9772;DHT22;4925;52.588;13.370;2023-07-29T12:53:58;25.00;99.90
9772;DHT22;4925;52.588;13.370;2023-07-29T12:56:24;24.90;99.90
9772;DHT22;4925;52.588;13.370;2023-07-29T12:58:50;25.40;99.90
9772;DHT22;4925;52.588;13.370;2023-07-29T13:01:15;25.80;99.90
9772;DHT22;4925;52.588;13.370;2023-07-29T13:03:44;25.90;99.90
9772;DHT22;4925;52.588;13.370;2023-07-29T13:06:10;25.80;99.90
9772;DHT22;4925;52.588;13.370;2023-07-29T13:08:36;25.70;99.90
9772;DHT22;4925;52.588;13.370;2023-07-29T13:11:03;25.60;99.90
9772;DHT22;4925;52.588;13.370;2023-07-29T13:13:29;25.30;99.90
9772;DHT22;4925;52.588;13.370;2023-07-29T13:15:55;25.50;99.90
9772;DHT22;4925;52.588;13.370;2023-07-29T13:18:21;25.80;99.90
9772;DHT22;4925;52.588;13.370;2023-07-29T13:20:47;25.70;99.90
9772;DHT22;4925;52.588;13.370;2023-07-29T13:23:13;25.80;99.90
9772;DHT22;4925;52.588;13.370;2023-07-29T13:25:38;25.90;99.90
9772;DHT22;4925;52.588;13.370;2023-07-29T13:28:04;26.00;99.90
9772;DHT22;4925;52.588;13.370;2023-07-29T13:30:30;26.40;99.90
9772;DHT22;4925;52.588;13.370;2023-07-29T13:32:56;26.40;99.90
9772;DHT22;4925;52.588;13.370;2023-07-29T13:35:22;26.10;99.90
9772;DHT22;4925;52.588;13.370;2023-07-29T13:37:47;26.20;99.90
9772;DHT22;4925;52.588;13.370;2023-07-29T13:40:13;26.00;99.90
9772;DHT22;4925;52.588;13.370;2023-07-29T13:42:39;26.20;99.90
9772;DHT22;4925;52.588;13.370;2023-07-29T13:45:05;26.00;99.90
9772;DHT22;4925;52.588;13.370;2023-07-29T13:47:30;26.10;99.90
9772;DHT22;4925;52.588;13.370;2023-07-29T13:49:56;26.50;99.90
9772;DHT22;4925;52.588;13.370;2023-07-29T13:52:22;26.60;99.90
9772;DHT22;4925;52.588;13.370;2023-07-29T13:54:47;26.90;99.90
9772;DHT22;4925;52.588;13.370;2023-07-29T13:57:13;27.20;99.90
9772;DHT22;4925;52.588;13.370;2023-07-29T13:59:39;27.40;99.90
9772;DHT22;4925;52.588;13.370;2023-07-29T14:02:05;27.50;99.90
9772;DHT22;4925;52.588;13.370;2023-07-29T14:04:32;27.50;99.90
9772;DHT22;4925;52.588;13.370;2023-07-29T14:06:58;27.70;99.90
9772;DHT22;4925;52.588;13.370;2023-07-29T14:09:24;27.60;99.90
9772;DHT22;4925;52.588;13.370;2023-07-29T14:11:50;27.00;99.90
9772;DHT22;4925;52.588;13.370;2023-07-29T14:14:16;27.10;99.90
9772;DHT22;4925;52.588;13.370;2023-07-29T14:16:41;26.80;99.90
9772;DHT22;4925;52.588;13.370;2023-07-29T14:19:07;26.40;99.90
9772;DHT22;4925;52.588;13.370;2023-07-29T14:21:33;26.20;99.90
9772;DHT22;4925;52.588;13.370;2023-07-29T14:23:58;26.40;99.90
9772;DHT22;4925;52.588;13.370;2023-07-29T14:26:24;26.20;99.90
9772;DHT22;4925;52.588;13.370;2023-07-29T14:28:50;26.20;99.90
9772;DHT22;4925;52.588;13.370;2023-07-29T14:31:16;26.30;99.90
9772;DHT22;4925;52.588;13.370;2023-07-29T14:33:44;26.40;99.90
9772;DHT22;4925;52.588;13.370;2023-07-29T14:36:10;26.40;99.90
9772;DHT22;4925;52.588;13.370;2023-07-29T14:38:36;26.40;99.90
9772;DHT22;4925;52.588;13.370;2023-07-29T14:41:02;26.30;99.90
9772;DHT22;4925;52.588;13.370;2023-07-29T14:43:28;26.20;99.90
9772;DHT22;4925;52.588;13.370;2023-07-29T14:45:54;26.40;99.90
9772;DHT22;4925;52.588;13.370;2023-07-29T14:48:19;26.50;99.90
9772;DHT22;4925;52.588;13.370;2023-07-29T14:50:45;26.10;99.90
9772;DHT22;4925;52.588;13.370;2023-07-29T14:53:11;25.80;99.90
9772;DHT22;4925;52.588;13.370;2023-07-29T14:55:37;25.70;99.90
9772;DHT22;4925;52.588;13.370;2023-07-29T14:58:03;25.60;99.90
9772;DHT22;4925;52.588;13.370;2023-07-29T15:00:29;25.70;99.90
9772;DHT22;4925;52.588;13.370;2023-07-29T15:02:55;25.60;99.90
9772;DHT22;4925;52.588;13.370;2023-07-29T15:05:20;25.70;99.90
9772;DHT22;4925;52.588;13.370;2023-07-29T15:07:47;25.50;99.90
9772;DHT22;4925;52.588;13.370;2023-07-29T15:10:14;25.30;99.90
9772;DHT22;4925;52.588;13.370;2023-07-29T15:12:41;25.50;99.90
9772;DHT22;4925;52.588;13.370;2023-07-29T15:15:07;25.30;99.90
9772;DHT22;4925;52.588;13.370;2023-07-29T15:17:33;25.00;99.90
9772;DHT22;4925;52.588;13.370;2023-07-29T15:19:59;24.80;99.90
9772;DHT22;4925;52.588;13.370;2023-07-29T15:22:25;24.90;99.90
9772;DHT22;4925;52.588;13.370;2023-07-29T15:24:50;24.90;99.90
9772;DHT22;4925;52.588;13.370;2023-07-29T15:27:16;25.10;99.90
9772;DHT22;4925;52.588;13.370;2023-07-29T15:29:42;25.10;99.90
9772;DHT22;4925;52.588;13.370;2023-07-29T15:32:07;25.20;99.90
9772;DHT22;4925;52.588;13.370;2023-07-29T15:34:33;25.10;99.90
9772;DHT22;4925;52.588;13.370;2023-07-29T15:36:59;25.10;99.90
9772;DHT22;4925;52.588;13.370;2023-07-29T15:39:25;25.00;99.90
9772;DHT22;4925;52.588;13.370;2023-07-29T15:41:51;24.90;99.90
9772;DHT22;4925;52.588;13.370;2023-07-29T15:44:17;24.50;99.90
9772;DHT22;4925;52.588;13.370;2023-07-29T15:46:43;24.20;99.90
9772;DHT22;4925;52.588;13.370;2023-07-29T15:49:09;23.60;99.90
9772;DHT22;4925;52.588;13.370;2023-07-29T15:51:35;22.90;99.90
9772;DHT22;4925;52.588;13.370;2023-07-29T15:54:01;22.70;99.90
9772;DHT22;4925;52.588;13.370;2023-07-29T15:56:28;22.60;99.90
9772;DHT22;4925;52.588;13.370;2023-07-29T15:58:54;22.10;99.90
9772;DHT22;4925;52.588;13.370;2023-07-29T16:01:22;22.00;99.90
9772;DHT22;4925;52.588;13.370;2023-07-29T16:03:47;21.70;99.90
9772;DHT22;4925;52.588;13.370;2023-07-29T16:06:13;22.00;99.90